Time;durP1;ratioP1;P1;durP2;ratioP2;P2;SDS_P1;SDS_P2;PMS_P1;PMS_P2;Temp;Humidity;BMP_temperature;BMP_pressure;BME280_temperature;BME280_humidity;BME280_pressure;Samples;Min_cycle;Max_cycle;Signal;HPM_P1;HPM_P2
2023/02/08 00:01:56;;;;;;;102.00;40.23;;;-2.80;99.90;;;;;;5083132;28;20222;-58
2023/02/08 00:05:03;;;;;;;105.07;40.00;;;-2.80;99.90;;;;;;5064012;28;20290;-57
2023/02/08 00:08:09;;;;;;;102.20;39.30;;;-2.80;99.90;;;;;;5061717;28;20231;-57
2023/02/08 00:11:15;;;;;;;106.37;38.97;;;-2.80;99.90;;;;;;5059438;28;20326;-58
2023/02/08 00:14:20;;;;;;;112.50;41.03;;;-2.80;99.90;;;;;;5071382;28;20357;-58
2023/02/08 00:17:26;;;;;;;106.83;41.40;;;-2.90;99.90;;;;;;5071731;28;20231;-58
2023/02/08 00:20:33;;;;;;;102.33;39.17;;;-2.90;99.90;;;;;;5064714;28;20203;-57
2023/02/08 00:23:39;;;;;;;100.87;39.43;;;-2.90;99.90;;;;;;5072043;28;20211;-58
2023/02/08 00:26:45;;;;;;;113.40;41.30;;;-3.00;99.90;;;;;;5071148;28;20200;-58
2023/02/08 00:29:51;;;;;;;109.03;41.30;;;-3.00;99.90;;;;;;5071676;28;20365;-58
2023/02/08 00:32:58;;;;;;;114.23;41.13;;;-3.00;99.90;;;;;;5062393;28;20223;-58
2023/02/08 00:36:08;;;;;;;102.03;39.33;;;-3.00;99.90;;;;;;5065546;28;20321;-58
2023/02/08 00:39:14;;;;;;;103.17;38.77;;;-3.00;99.90;;;;;;5070985;28;20273;-58
2023/02/08 00:42:20;;;;;;;102.47;38.13;;;-3.00;99.90;;;;;;5076283;28;20198;-58
2023/02/08 00:45:26;;;;;;;100.37;37.67;;;-3.10;99.90;;;;;;5068335;28;20577;-57
2023/02/08 00:48:32;;;;;;;92.40;35.73;;;-3.00;99.90;;;;;;5069829;28;20245;-58
2023/02/08 00:51:39;;;;;;;92.67;36.73;;;-3.10;99.90;;;;;;5068766;28;20199;-58
2023/02/08 00:54:45;;;;;;;92.80;35.20;;;-3.10;99.90;;;;;;5070763;28;20241;-58
2023/02/08 00:57:51;;;;;;;82.80;33.43;;;-3.10;99.90;;;;;;5055414;28;20246;-58
2023/02/08 01:00:57;;;;;;;83.33;33.83;;;-3.10;99.90;;;;;;5067106;28;20269;-58
2023/02/08 01:04:03;;;;;;;89.90;34.73;;;-3.20;99.90;;;;;;5068962;28;20284;-57
2023/02/08 01:07:10;;;;;;;84.60;33.63;;;-3.20;99.90;;;;;;5056554;28;20222;-58
2023/02/08 01:10:16;;;;;;;84.50;34.20;;;-3.20;99.90;;;;;;5071755;28;20215;-58
2023/02/08 01:13:22;;;;;;;88.20;34.90;;;-3.30;99.90;;;;;;5084497;28;20199;-58
2023/02/08 01:16:31;;;;;;;90.30;36.87;;;-3.20;99.90;;;;;;5075365;28;20226;-58
2023/02/08 01:19:37;;;;;;;87.20;34.63;;;-3.20;99.90;;;;;;5074348;28;20653;-58
2023/02/08 01:22:44;;;;;;;90.87;34.00;;;-3.20;99.90;;;;;;5055214;28;20220;-57
2023/02/08 01:25:50;;;;;;;89.67;35.20;;;-3.30;99.90;;;;;;5069318;28;20256;-57
2023/02/08 01:28:57;;;;;;;86.20;35.27;;;-3.30;99.90;;;;;;5071211;28;20268;-58
2023/02/08 01:32:03;;;;;;;88.70;35.10;;;-3.30;99.90;;;;;;5069474;28;20223;-58
2023/02/08 01:35:09;;;;;;;87.50;36.57;;;-3.30;99.90;;;;;;5066083;28;20624;-57
2023/02/08 01:38:16;;;;;;;103.13;37.03;;;-3.30;99.90;;;;;;5074057;28;20766;-58
2023/02/08 01:41:24;;;;;;;94.83;36.17;;;-3.30;99.90;;;;;;5073407;28;20221;-58
2023/02/08 01:45:16;;;;;;;96.67;37.00;;;-3.30;99.90;;;;;;5073524;28;20227;-57
2023/02/08 01:48:26;;;;;;;99.77;37.70;;;-3.40;99.90;;;;;;5054298;28;20345;-57
2023/02/08 01:51:35;;;;;;;92.93;35.23;;;-3.40;99.90;;;;;;5071087;28;20239;-57
2023/02/08 01:54:48;;;;;;;89.47;35.23;;;-3.40;99.90;;;;;;5072506;28;20203;-58
2023/02/08 01:57:59;;;;;;;78.03;32.97;;;-3.40;99.90;;;;;;5074043;28;20207;-57
2023/02/08 02:01:06;;;;;;;82.37;34.83;;;-3.40;99.90;;;;;;5069696;28;20230;-57
2023/02/08 02:04:13;;;;;;;85.63;33.73;;;-3.30;99.90;;;;;;5067594;28;20716;-57
2023/02/08 02:07:21;;;;;;;85.07;33.50;;;-3.30;99.90;;;;;;5070599;28;20341;-57
2023/02/08 02:10:31;;;;;;;97.17;34.77;;;-3.30;99.90;;;;;;5075006;28;20245;-59
2023/02/08 02:13:37;;;;;;;83.47;34.40;;;-3.40;99.90;;;;;;5072738;28;20191;-58
2023/02/08 02:16:43;;;;;;;90.47;35.23;;;-3.30;99.90;;;;;;5066009;28;20241;-59
2023/02/08 02:19:57;;;;;;;102.93;35.27;;;-3.40;99.90;;;;;;5067927;28;20219;-59
2023/02/08 02:23:49;;;;;;;92.03;34.27;;;-3.30;99.90;;;;;;5066945;28;20219;-59
2023/02/08 02:27:29;;;;;;;97.47;34.90;;;-3.30;99.90;;;;;;5072576;28;20200;-59
2023/02/08 02:31:15;;;;;;;97.67;34.90;;;-3.40;99.90;;;;;;5011710;28;20252;-58
2023/02/08 02:34:31;;;;;;;88.00;33.20;;;-3.40;99.90;;;;;;5070851;28;20227;-59
2023/02/08 02:37:50;;;;;;;77.40;31.87;;;-3.40;99.90;;;;;;5065555;28;20257;-59
2023/02/08 02:41:12;;;;;;;79.93;32.03;;;-3.40;99.90;;;;;;5070718;28;20195;-59
2023/02/08 02:44:24;;;;;;;74.00;30.50;;;-3.40;99.90;;;;;;5068619;28;20200;-59
2023/02/08 02:47:37;;;;;;;81.60;30.80;;;-3.50;99.90;;;;;;5067542;28;20227;-57
2023/02/08 02:50:48;;;;;;;73.63;30.53;;;-3.60;99.90;;;;;;5071694;28;20215;-59
2023/02/08 02:53:59;;;;;;;73.30;30.00;;;-3.60;99.90;;;;;;5070006;28;20241;-59
2023/02/08 02:57:08;;;;;;;78.00;30.40;;;-3.70;99.90;;;;;;5068980;28;20606;-59
2023/02/08 03:00:22;;;;;;;80.17;30.13;;;-3.70;99.90;;;;;;5070986;28;20761;-59
2023/02/08 03:03:32;;;;;;;78.03;30.73;;;-3.70;99.90;;;;;;5070473;28;20230;-58
2023/02/08 03:06:51;;;;;;;73.47;30.23;;;-3.70;99.90;;;;;;5070868;28;20268;-59
2023/02/08 03:10:07;;;;;;;75.90;30.43;;;-3.80;99.90;;;;;;5067608;28;20311;-59
2023/02/08 03:13:25;;;;;;;77.43;30.93;;;-3.80;99.90;;;;;;5075662;28;20218;-59
2023/02/08 03:16:42;;;;;;;73.07;30.57;;;-3.80;99.90;;;;;;5070394;28;20223;-59
2023/02/08 03:19:59;;;;;;;83.40;30.00;;;-3.80;99.90;;;;;;5069586;28;20800;-59
2023/02/08 03:23:13;;;;;;;83.97;31.23;;;-3.90;99.90;;;;;;5070210;28;20197;-59
2023/02/08 03:26:23;;;;;;;71.63;29.57;;;-3.90;99.90;;;;;;5073167;28;20241;-59
2023/02/08 03:29:40;;;;;;;78.47;29.70;;;-3.90;99.90;;;;;;5072153;28;20717;-59
2023/02/08 03:32:50;;;;;;;73.93;30.30;;;-3.90;99.90;;;;;;5070541;28;20276;-59
2023/02/08 03:36:03;;;;;;;76.07;29.30;;;-3.90;99.90;;;;;;5071125;28;20191;-59
2023/02/08 03:39:15;;;;;;;74.00;31.03;;;-3.90;99.90;;;;;;5067368;28;20303;-59
2023/02/08 03:42:27;;;;;;;69.67;29.90;;;-3.80;99.90;;;;;;5070998;28;20214;-59
2023/02/08 03:45:36;;;;;;;65.97;29.60;;;-3.90;99.90;;;;;;5066359;28;20223;-59
2023/02/08 03:48:45;;;;;;;78.33;30.00;;;-3.90;99.90;;;;;;5071949;28;20243;-59
2023/02/08 03:51:54;;;;;;;71.30;29.93;;;-3.90;99.90;;;;;;5066107;28;20229;-59
2023/02/08 03:55:04;;;;;;;72.83;30.13;;;-3.90;99.90;;;;;;5069502;28;20231;-59
2023/02/08 03:58:17;;;;;;;73.83;29.67;;;-3.90;99.90;;;;;;5076478;28;20221;-59
2023/02/08 04:01:28;;;;;;;73.43;29.03;;;-4.00;99.90;;;;;;5060881;28;20254;-59
2023/02/08 04:04:38;;;;;;;72.60;30.13;;;-4.00;99.90;;;;;;5057901;28;20238;-58
2023/02/08 04:07:44;;;;;;;73.53;29.10;;;-3.90;99.90;;;;;;5074192;28;20207;-58
2023/02/08 04:10:51;;;;;;;70.97;30.30;;;-3.90;99.90;;;;;;5069027;28;20214;-59
2023/02/08 04:13:56;;;;;;;71.20;28.47;;;-4.00;99.90;;;;;;5066984;28;20256;-59
2023/02/08 04:17:02;;;;;;;67.53;29.07;;;-4.10;99.90;;;;;;5067861;28;20567;-58
2023/02/08 04:20:08;;;;;;;76.43;27.97;;;-4.10;99.90;;;;;;5065857;28;20581;-59
2023/02/08 04:23:14;;;;;;;75.60;29.80;;;-4.10;99.90;;;;;;5070650;28;20260;-59
2023/02/08 04:26:21;;;;;;;72.17;28.73;;;-4.10;99.90;;;;;;5069454;28;20202;-59
2023/02/08 04:29:27;;;;;;;61.00;27.13;;;-4.10;99.90;;;;;;5076412;28;20187;-59
2023/02/08 04:32:34;;;;;;;65.47;27.60;;;-4.10;99.90;;;;;;5071195;28;20216;-59
2023/02/08 04:35:42;;;;;;;67.43;27.30;;;-4.00;99.90;;;;;;5061144;28;20222;-59
2023/02/08 04:38:48;;;;;;;67.33;29.13;;;-4.00;99.90;;;;;;5068082;28;20661;-59
2023/02/08 04:41:55;;;;;;;67.60;28.80;;;-4.00;99.90;;;;;;5078254;28;20226;-59
2023/02/08 04:45:01;;;;;;;72.57;28.27;;;-4.00;99.90;;;;;;5069606;28;20213;-59
2023/02/08 04:48:07;;;;;;;61.03;27.30;;;-4.00;99.90;;;;;;5069703;28;20352;-59
2023/02/08 04:51:16;;;;;;;66.60;26.33;;;-4.00;99.90;;;;;;5077714;28;20226;-59
2023/02/08 04:54:22;;;;;;;66.33;27.50;;;-4.00;99.90;;;;;;5074749;28;20241;-58
2023/02/08 04:57:29;;;;;;;67.10;26.57;;;-4.00;99.90;;;;;;5077231;28;20313;-59
2023/02/08 05:00:35;;;;;;;68.53;28.17;;;-4.00;99.90;;;;;;5073319;28;20577;-59
2023/02/08 05:03:41;;;;;;;65.20;27.27;;;-4.00;99.90;;;;;;5075261;28;20230;-59
2023/02/08 05:06:47;;;;;;;66.67;27.80;;;-4.00;99.90;;;;;;5072980;28;20214;-59
2023/02/08 05:09:53;;;;;;;62.00;26.67;;;-4.00;99.90;;;;;;5071515;28;20226;-59
2023/02/08 05:13:00;;;;;;;56.90;25.80;;;-4.00;99.90;;;;;;5069708;28;20231;-59
2023/02/08 05:16:06;;;;;;;75.50;27.83;;;-4.10;99.90;;;;;;5072539;28;20295;-58
2023/02/08 05:19:13;;;;;;;62.87;27.07;;;-4.10;99.90;;;;;;5067285;28;20230;-59
2023/02/08 05:22:19;;;;;;;62.83;26.87;;;-4.20;99.90;;;;;;5068863;28;20237;-59
2023/02/08 05:25:25;;;;;;;67.27;26.97;;;-4.20;99.90;;;;;;5063355;28;20360;-59
2023/02/08 05:28:32;;;;;;;58.70;27.13;;;-4.20;99.90;;;;;;5073874;28;20241;-58
2023/02/08 05:31:38;;;;;;;67.67;27.00;;;-4.10;99.90;;;;;;5064874;28;20223;-59
2023/02/08 05:34:45;;;;;;;58.00;26.37;;;-4.00;99.90;;;;;;5077845;28;20727;-58
2023/02/08 05:37:51;;;;;;;58.07;25.43;;;-4.00;99.90;;;;;;5070273;28;20222;-59
2023/02/08 05:40:57;;;;;;;55.90;25.43;;;-3.90;99.90;;;;;;5071986;28;20724;-59
2023/02/08 05:44:04;;;;;;;57.37;26.00;;;-3.80;99.90;;;;;;5070059;28;20225;-59
2023/02/08 05:47:09;;;;;;;59.00;25.33;;;-3.70;99.90;;;;;;5073624;28;20230;-59
2023/02/08 05:50:15;;;;;;;57.70;25.30;;;-3.60;99.90;;;;;;5071446;28;20709;-59
2023/02/08 05:53:21;;;;;;;56.73;25.23;;;-3.60;99.90;;;;;;5074176;28;20207;-59
2023/02/08 05:56:27;;;;;;;50.53;23.47;;;-3.60;99.90;;;;;;5070643;28;20295;-59
2023/02/08 05:59:34;;;;;;;53.73;25.20;;;-3.60;99.90;;;;;;5073217;28;20290;-59
2023/02/08 06:02:40;;;;;;;60.33;25.27;;;-3.50;99.90;;;;;;5074696;28;20253;-59
2023/02/08 06:05:46;;;;;;;51.37;24.70;;;-3.50;99.90;;;;;;5080535;28;20254;-59
2023/02/08 06:08:52;;;;;;;57.27;24.40;;;-3.50;99.90;;;;;;5069204;28;20605;-59
2023/02/08 06:11:58;;;;;;;57.53;24.13;;;-3.50;99.90;;;;;;5071305;28;20219;-59
2023/02/08 06:15:06;;;;;;;53.27;24.03;;;-3.50;99.90;;;;;;5066279;28;20198;-58
2023/02/08 06:18:13;;;;;;;56.47;23.63;;;-3.40;99.90;;;;;;5072051;28;20203;-59
2023/02/08 06:21:19;;;;;;;57.53;24.37;;;-3.40;99.90;;;;;;5069721;28;20227;-59
2023/02/08 06:24:29;;;;;;;53.13;24.50;;;-3.40;99.90;;;;;;5071277;28;20199;-59
2023/02/08 06:27:34;;;;;;;54.63;23.57;;;-3.40;99.90;;;;;;5069590;28;20199;-59
2023/02/08 06:30:42;;;;;;;57.93;24.57;;;-3.40;99.90;;;;;;5054684;28;20264;-59
2023/02/08 06:33:48;;;;;;;61.67;24.80;;;-3.40;99.90;;;;;;5073338;28;20226;-59
2023/02/08 06:36:58;;;;;;;55.53;24.37;;;-3.50;99.90;;;;;;5073721;28;20334;-59
2023/02/08 06:40:04;;;;;;;52.80;23.63;;;-3.60;99.90;;;;;;5068764;28;20230;-59
2023/02/08 06:43:10;;;;;;;51.60;23.47;;;-3.70;99.90;;;;;;5072966;28;20203;-59
2023/02/08 06:46:17;;;;;;;54.70;22.97;;;-3.80;99.90;;;;;;5058584;28;20816;-59
2023/02/08 06:49:22;;;;;;;52.53;22.87;;;-3.90;99.90;;;;;;5072776;28;20258;-58
2023/02/08 06:52:28;;;;;;;53.63;23.30;;;-4.00;99.90;;;;;;5073067;28;21025;-59
2023/02/08 06:55:33;;;;;;;56.30;24.23;;;-4.00;99.90;;;;;;5068799;28;20223;-59
2023/02/08 06:58:39;;;;;;;50.90;23.53;;;-4.00;99.90;;;;;;5066210;28;20207;-58
2023/02/08 07:01:46;;;;;;;53.13;23.67;;;-4.00;99.90;;;;;;5071101;28;20230;-59
2023/02/08 07:04:52;;;;;;;53.10;23.00;;;-4.00;99.90;;;;;;5072617;28;20242;-59
2023/02/08 07:07:57;;;;;;;49.97;23.40;;;-4.00;99.90;;;;;;5065867;28;20389;-59
2023/02/08 07:11:07;;;;;;;55.90;24.27;;;-4.00;99.90;;;;;;5071801;28;20272;-59
2023/02/08 07:14:14;;;;;;;59.03;23.83;;;-4.00;99.90;;;;;;5071231;28;20210;-59
2023/02/08 07:17:22;;;;;;;52.47;24.23;;;-4.10;99.90;;;;;;5068343;28;20273;-59
2023/02/08 07:20:28;;;;;;;49.20;24.00;;;-4.10;99.90;;;;;;5066589;28;20239;-59
2023/02/08 07:23:34;;;;;;;52.43;23.73;;;-4.10;99.90;;;;;;5072162;28;20203;-59
2023/02/08 07:26:40;;;;;;;60.43;26.03;;;-4.20;99.90;;;;;;5062360;28;20230;-59
2023/02/08 07:29:46;;;;;;;55.70;25.50;;;-4.10;99.90;;;;;;5058996;28;20195;-59
2023/02/08 07:32:53;;;;;;;59.03;26.13;;;-4.10;99.90;;;;;;5068821;28;20222;-59
2023/02/08 07:35:59;;;;;;;65.77;24.90;;;-4.10;99.90;;;;;;5076239;28;20215;-59
2023/02/08 07:39:05;;;;;;;64.67;26.77;;;-4.00;99.90;;;;;;5073751;28;20600;-59
2023/02/08 07:42:11;;;;;;;57.23;26.40;;;-4.00;99.90;;;;;;5070297;28;20220;-59
2023/02/08 07:45:17;;;;;;;58.23;26.93;;;-3.90;99.90;;;;;;5069332;28;20269;-59
2023/02/08 07:48:24;;;;;;;61.57;28.70;;;-3.90;99.90;;;;;;5053537;28;20727;-58
2023/02/08 07:51:30;;;;;;;63.90;28.27;;;-3.80;99.90;;;;;;5065962;28;20629;-59
2023/02/08 07:54:36;;;;;;;67.83;28.37;;;-3.80;99.90;;;;;;5071320;28;20210;-59
2023/02/08 07:57:42;;;;;;;70.53;28.27;;;-3.70;99.90;;;;;;5068131;28;20253;-59
2023/02/08 08:00:47;;;;;;;76.90;30.10;;;-3.60;99.90;;;;;;5072306;28;20350;-59
2023/02/08 08:03:55;;;;;;;71.17;29.03;;;-3.40;99.90;;;;;;5075691;28;20194;-59
2023/02/08 08:07:01;;;;;;;69.90;30.07;;;-3.30;99.90;;;;;;5069890;28;20659;-59
2023/02/08 08:10:07;;;;;;;72.33;29.60;;;-3.10;99.90;;;;;;5071610;28;20692;-59
2023/02/08 08:13:13;;;;;;;78.63;31.17;;;-2.70;99.90;;;;;;5061476;28;20692;-59
2023/02/08 08:16:19;;;;;;;69.30;30.67;;;-2.50;99.90;;;;;;5072586;28;20206;-59
2023/02/08 08:19:27;;;;;;;61.10;28.20;;;-2.30;99.90;;;;;;5076293;28;20202;-57
2023/02/08 08:22:33;;;;;;;62.20;30.27;;;-2.00;99.90;;;;;;5074727;28;20223;-57
2023/02/08 08:25:39;;;;;;;57.77;26.83;;;-1.80;99.90;;;;;;5068104;28;20256;-57
2023/02/08 08:28:46;;;;;;;64.60;28.47;;;-1.60;99.90;;;;;;5069361;28;20211;-57
2023/02/08 08:31:52;;;;;;;50.93;26.77;;;-1.40;99.90;;;;;;5074495;28;20292;-57
2023/02/08 08:34:59;;;;;;;56.67;27.23;;;-1.30;99.90;;;;;;5071722;28;20573;-62
2023/02/08 08:38:05;;;;;;;55.03;25.63;;;-1.10;99.90;;;;;;5066610;28;20218;-63
2023/02/08 08:41:14;;;;;;;52.50;25.40;;;-1.00;99.90;;;;;;5066486;28;20206;-65
2023/02/08 08:44:20;;;;;;;48.70;24.83;;;-0.80;99.90;;;;;;5068899;28;20249;-63
2023/02/08 08:47:26;;;;;;;48.50;23.77;;;-0.60;99.90;;;;;;5075689;28;20271;-63
2023/02/08 08:50:33;;;;;;;45.57;22.77;;;-0.50;99.90;;;;;;5067024;28;20280;-63
2023/02/08 08:53:39;;;;;;;39.23;20.90;;;-0.30;99.90;;;;;;5066354;28;20298;-63
2023/02/08 08:56:45;;;;;;;41.63;21.23;;;-0.10;99.90;;;;;;5069179;28;20218;-63
2023/02/08 08:59:51;;;;;;;37.00;18.77;;;0.00;99.90;;;;;;5069409;28;20240;-63
2023/02/08 09:02:57;;;;;;;37.37;20.30;;;0.10;99.90;;;;;;5065876;28;20223;-63
2023/02/08 09:06:04;;;;;;;39.77;20.67;;;0.20;99.90;;;;;;5063429;28;20783;-63
2023/02/08 09:09:10;;;;;;;42.27;19.67;;;0.40;99.90;;;;;;5067244;28;20242;-63
2023/02/08 09:12:16;;;;;;;36.87;19.20;;;0.50;99.90;;;;;;5065477;28;20230;-63
2023/02/08 09:15:22;;;;;;;36.77;19.30;;;0.60;99.90;;;;;;5068817;28;20203;-63
2023/02/08 09:18:28;;;;;;;39.10;18.70;;;0.80;99.90;;;;;;5064443;28;20219;-63
2023/02/08 09:21:35;;;;;;;31.97;16.40;;;1.00;99.90;;;;;;5066370;28;20218;-63
2023/02/08 09:24:41;;;;;;;37.80;17.40;;;1.20;99.90;;;;;;5066596;28;20681;-63
2023/02/08 09:27:47;;;;;;;32.27;17.23;;;1.30;99.90;;;;;;5064982;28;20224;-63
2023/02/08 09:30:53;;;;;;;36.03;18.20;;;1.50;99.90;;;;;;5070402;28;20696;-63
2023/02/08 09:34:01;;;;;;;29.70;16.30;;;1.70;99.90;;;;;;5069486;28;20292;-64
2023/02/08 09:37:08;;;;;;;30.67;15.63;;;1.90;99.90;;;;;;5071980;28;20631;-64
2023/02/08 09:40:22;;;;;;;27.87;14.67;;;2.10;99.90;;;;;;5070432;28;20207;-64
2023/02/08 09:43:40;;;;;;;26.37;14.03;;;2.30;99.90;;;;;;5069598;28;20226;-64
2023/02/08 09:46:55;;;;;;;24.60;12.70;;;2.60;99.90;;;;;;5068719;28;20239;-64
2023/02/08 09:50:06;;;;;;;23.73;13.03;;;2.90;99.90;;;;;;5068749;28;20716;-64
2023/02/08 09:53:19;;;;;;;24.83;13.83;;;3.20;99.90;;;;;;5071741;28;20223;-64
2023/02/08 09:56:30;;;;;;;25.43;13.73;;;3.50;99.90;;;;;;5068075;28;20195;-64
2023/02/08 09:59:38;;;;;;;22.13;12.03;;;3.80;99.90;;;;;;5074725;28;20199;-64
2023/02/08 10:02:47;;;;;;;24.23;12.60;;;4.10;99.90;;;;;;5072029;28;20222;-64
2023/02/08 10:05:53;;;;;;;20.47;12.13;;;4.50;99.90;;;;;;5069635;28;20246;-64
2023/02/08 10:09:05;;;;;;;18.23;12.13;;;4.70;99.90;;;;;;5069278;28;20284;-64
2023/02/08 10:12:19;;;;;;;20.30;11.70;;;4.90;99.90;;;;;;5069646;28;20234;-64
2023/02/08 10:15:36;;;;;;;24.20;12.90;;;5.10;99.90;;;;;;5077922;28;20364;-64
2023/02/08 10:18:50;;;;;;;20.93;12.53;;;5.40;99.90;;;;;;5070418;28;20219;-64
2023/02/08 10:22:04;;;;;;;22.43;12.83;;;5.90;99.90;;;;;;5070004;28;20219;-64
2023/02/08 10:25:31;;;;;;;23.87;12.30;;;6.30;99.90;;;;;;5071998;28;20195;-65
2023/02/08 10:29:17;;;;;;;23.37;12.20;;;6.70;99.90;;;;;;5072487;28;20888;-65
2023/02/08 10:32:44;;;;;;;23.07;11.97;;;7.20;99.90;;;;;;5072782;28;20214;-65
2023/02/08 10:35:54;;;;;;;26.70;12.30;;;7.50;99.90;;;;;;5068087;28;20265;-65
2023/02/08 10:39:11;;;;;;;20.10;10.87;;;7.80;99.90;;;;;;5063907;28;20736;-65
2023/02/08 10:42:22;;;;;;;11.23;8.77;;;8.00;99.90;;;;;;5070994;28;20304;-65
2023/02/08 10:45:35;;;;;;;18.03;9.00;;;7.90;99.90;;;;;;5069224;28;20696;-65
2023/02/08 10:49:00;;;;;;;13.17;9.20;;;7.90;99.90;;;;;;5071117;28;20226;-65
2023/02/08 10:52:06;;;;;;;15.17;9.10;;;7.90;99.90;;;;;;5074427;28;20243;-65
2023/02/08 10:55:15;;;;;;;14.70;10.10;;;8.00;99.90;;;;;;5064124;28;20222;-65
2023/02/08 10:58:25;;;;;;;18.93;9.73;;;8.10;99.90;;;;;;5065007;28;20269;-65
2023/02/08 11:01:32;;;;;;;19.30;9.50;;;8.30;99.90;;;;;;5067688;28;20246;-65
2023/02/08 11:04:58;;;;;;;13.33;9.93;;;8.30;99.90;;;;;;5064930;28;20223;-65
2023/02/08 11:08:10;;;;;;;14.40;9.23;;;8.30;99.90;;;;;;5065335;28;20277;-65
2023/02/08 11:11:16;;;;;;;21.73;10.40;;;8.50;99.90;;;;;;5070882;28;20196;-65
2023/02/08 11:14:27;;;;;;;15.43;9.20;;;8.60;99.90;;;;;;5060201;28;20266;-65
2023/02/08 11:17:56;;;;;;;16.03;9.63;;;8.70;99.90;;;;;;5066519;28;20753;-65
2023/02/08 11:21:05;;;;;;;14.13;9.10;;;8.60;99.90;;;;;;5066333;28;20581;-65
2023/02/08 11:24:26;;;;;;;10.77;8.77;;;8.70;99.90;;;;;;5063940;28;20292;-65
2023/02/08 11:27:35;;;;;;;19.00;9.07;;;8.70;99.90;;;;;;5057612;28;21000;-65
2023/02/08 11:30:59;;;;;;;15.80;9.33;;;8.90;99.90;;;;;;5068619;28;20332;-65
2023/02/08 11:34:08;;;;;;;13.00;7.60;;;9.20;99.90;;;;;;5067124;28;20621;-65
2023/02/08 11:37:18;;;;;;;11.90;7.63;;;9.60;99.90;;;;;;5072780;28;20248;-65
2023/02/08 11:40:29;;;;;;;12.87;8.00;;;9.90;99.90;;;;;;5068413;28;20211;-65
2023/02/08 11:43:36;;;;;;;12.43;8.07;;;10.00;99.90;;;;;;5064088;28;20222;-65
2023/02/08 11:46:47;;;;;;;11.77;8.37;;;9.90;99.90;;;;;;5066485;28;20275;-65
2023/02/08 11:49:56;;;;;;;12.47;7.07;;;9.90;99.90;;;;;;5070153;28;20262;-65
2023/02/08 11:53:04;;;;;;;11.37;7.60;;;10.00;99.90;;;;;;5054393;28;20231;-65
2023/02/08 11:56:18;;;;;;;11.73;6.33;;;10.20;99.90;;;;;;5062309;28;20245;-65
2023/02/08 11:59:26;;;;;;;10.50;5.20;;;10.30;98.30;;;;;;5068578;28;20246;-66
2023/02/08 12:02:38;;;;;;;5.10;3.63;;;10.20;92.90;;;;;;5065037;28;20219;-66
2023/02/08 12:05:54;;;;;;;4.10;3.70;;;10.00;89.10;;;;;;5066585;28;20762;-66
2023/02/08 12:09:07;;;;;;;4.47;4.10;;;10.10;88.60;;;;;;5062082;28;20316;-66
2023/02/08 12:12:18;;;;;;;7.63;5.30;;;10.20;89.20;;;;;;5059850;28;20195;-66
2023/02/08 12:15:30;;;;;;;6.67;5.07;;;10.50;90.30;;;;;;5070108;28;20218;-66
2023/02/08 12:18:56;;;;;;;4.80;4.33;;;10.60;87.50;;;;;;5068101;28;20268;-65
2023/02/08 12:22:07;;;;;;;7.00;4.63;;;10.40;90.20;;;;;;5074877;28;20262;-66
2023/02/08 12:25:24;;;;;;;6.57;4.20;;;10.40;85.80;;;;;;5056941;28;20214;-65
2023/02/08 12:28:42;;;;;;;4.50;4.10;;;10.60;87.60;;;;;;5066114;28;20268;-66
2023/02/08 12:32:05;;;;;;;4.33;3.93;;;10.70;86.60;;;;;;5067223;28;20215;-65
2023/02/08 12:35:42;;;;;;;5.70;4.03;;;10.30;84.30;;;;;;5075182;28;20284;-65
2023/02/08 12:42:58;;;;;;;7.40;4.23;;;10.50;84.60;;;;;;5045639;28;20235;-65
2023/02/08 12:46:16;;;;;;;6.87;3.50;;;10.60;85.70;;;;;;5060219;28;20245;-65
2023/02/08 12:49:44;;;;;;;3.77;3.47;;;11.00;84.10;;;;;;5067211;28;20235;-65
2023/02/08 12:52:56;;;;;;;3.67;3.47;;;11.30;81.70;;;;;;5068800;28;20282;-65
2023/02/08 12:56:06;;;;;;;3.20;3.03;;;11.60;81.10;;;;;;5054455;28;20227;-67
2023/02/08 12:59:21;;;;;;;3.53;3.27;;;11.60;77.70;;;;;;5060581;28;20227;-65
2023/02/08 13:02:32;;;;;;;3.30;3.10;;;11.50;76.90;;;;;;5055497;28;22201;-64
2023/02/08 13:05:40;;;;;;;6.13;3.47;;;11.30;79.90;;;;;;5051273;28;20262;-65
2023/02/08 13:09:06;;;;;;;4.43;3.80;;;11.30;78.60;;;;;;5060708;28;20285;-66
2023/02/08 13:12:17;;;;;;;7.63;4.37;;;11.40;79.50;;;;;;5060363;28;20199;-65
2023/02/08 13:15:29;;;;;;;5.03;4.23;;;11.50;79.80;;;;;;5061236;28;20755;-65
2023/02/08 13:18:42;;;;;;;4.50;4.10;;;11.40;78.50;;;;;;5062774;28;20227;-65
2023/02/08 13:21:49;;;;;;;4.70;4.30;;;11.30;81.30;;;;;;5056759;28;20242;-65
2023/02/08 13:24:57;;;;;;;5.33;4.30;;;11.40;80.80;;;;;;5058302;28;20227;-65
2023/02/08 13:28:18;;;;;;;4.50;4.10;;;11.00;81.50;;;;;;5057484;28;20297;-65
2023/02/08 13:31:27;;;;;;;6.70;4.00;;;10.70;81.10;;;;;;5056022;28;21846;-65
2023/02/08 13:34:37;;;;;;;5.00;4.40;;;10.50;80.80;;;;;;5063603;28;20827;-65
2023/02/08 13:37:51;;;;;;;4.83;4.10;;;10.40;81.60;;;;;;5065750;28;20199;-65
2023/02/08 13:41:13;;;;;;;9.63;4.70;;;10.10;80.60;;;;;;5061429;28;20265;-65
2023/02/08 13:44:29;;;;;;;4.90;4.47;;;10.30;80.90;;;;;;5062636;28;20215;-65
2023/02/08 13:47:43;;;;;;;8.97;4.70;;;10.10;79.60;;;;;;5055422;28;20219;-65
2023/02/08 13:50:51;;;;;;;4.67;4.20;;;10.00;80.20;;;;;;5065321;28;20278;-65
2023/02/08 13:54:11;;;;;;;4.50;4.10;;;10.00;81.10;;;;;;5060453;28;20222;-65
2023/02/08 13:57:52;;;;;;;4.90;4.40;;;9.70;81.90;;;;;;5062979;28;20241;-65
2023/02/08 14:01:17;;;;;;;6.57;4.53;;;9.80;83.00;;;;;;5046435;28;20806;-65
2023/02/08 14:04:37;;;;;;;5.30;4.63;;;9.90;83.30;;;;;;5058261;28;20266;-65
2023/02/08 14:07:46;;;;;;;6.60;4.60;;;9.90;84.10;;;;;;5064890;28;20253;-64
2023/02/08 14:11:06;;;;;;;7.97;4.50;;;10.00;83.70;;;;;;5065089;28;20223;-65
2023/02/08 14:14:18;;;;;;;7.07;4.07;;;9.80;80.70;;;;;;5065810;28;20253;-65
2023/02/08 14:17:28;;;;;;;6.53;4.63;;;9.70;86.50;;;;;;5061128;28;20888;-65
2023/02/08 14:20:38;;;;;;;7.53;4.00;;;9.80;82.70;;;;;;5060347;28;21087;-65
2023/02/08 14:23:45;;;;;;;4.97;3.90;;;9.70;81.00;;;;;;5065644;28;20221;-65
2023/02/08 14:26:51;;;;;;;5.77;3.93;;;9.70;79.80;;;;;;5065015;28;20218;-65
2023/02/08 14:30:01;;;;;;;6.03;3.90;;;9.80;83.70;;;;;;5058322;28;20245;-65
2023/02/08 14:33:16;;;;;;;4.40;4.00;;;9.90;80.20;;;;;;5064008;28;20258;-65
2023/02/08 14:36:29;;;;;;;6.23;3.90;;;9.90;80.90;;;;;;5063507;28;20284;-65
2023/02/08 14:39:36;;;;;;;4.03;3.73;;;9.70;79.50;;;;;;5067481;28;20713;-65
2023/02/08 14:42:56;;;;;;;3.90;3.60;;;9.70;80.20;;;;;;5062796;28;20207;-65
2023/02/08 14:46:40;;;;;;;4.10;3.53;;;9.90;80.00;;;;;;5061925;28;20234;-65
2023/02/08 14:49:49;;;;;;;3.97;3.67;;;9.80;78.60;;;;;;5060510;28;20239;-65
2023/02/08 14:53:14;;;;;;;3.80;3.50;;;9.80;78.80;;;;;;5069018;28;20786;-65
2023/02/08 14:56:23;;;;;;;3.87;3.47;;;9.70;76.50;;;;;;5067804;28;20246;-65
2023/02/08 14:59:31;;;;;;;5.90;3.60;;;9.70;79.70;;;;;;5061012;28;20283;-65
2023/02/08 15:02:43;;;;;;;5.90;3.73;;;9.60;78.30;;;;;;5062985;28;20268;-65
2023/02/08 15:06:13;;;;;;;4.17;3.77;;;9.50;80.40;;;;;;5061076;28;21010;-65
2023/02/08 15:09:22;;;;;;;3.93;3.53;;;9.40;80.10;;;;;;5065718;28;20246;-65
2023/02/08 15:12:32;;;;;;;6.17;3.77;;;9.30;80.20;;;;;;5062816;28;20311;-65
2023/02/08 15:15:40;;;;;;;3.73;3.47;;;9.20;82.00;;;;;;5061041;28;20266;-65
2023/02/08 15:18:48;;;;;;;6.17;3.73;;;9.20;83.40;;;;;;5062165;28;21080;-65
2023/02/08 15:22:15;;;;;;;4.07;3.67;;;9.10;79.90;;;;;;5055685;28;20354;-65
2023/02/08 15:25:24;;;;;;;8.37;3.97;;;9.00;81.40;;;;;;5062466;28;20268;-65
2023/02/08 15:28:33;;;;;;;8.93;6.43;;;8.90;81.80;;;;;;5063172;28;20291;-65
2023/02/08 15:31:39;;;;;;;7.10;6.40;;;8.80;82.00;;;;;;5051145;28;20231;-65
2023/02/08 15:34:51;;;;;;;8.37;5.00;;;8.80;81.50;;;;;;5070921;28;20758;-65
2023/02/08 15:37:58;;;;;;;9.37;4.97;;;8.70;85.90;;;;;;5065880;28;20199;-65
2023/02/08 15:41:07;;;;;;;5.70;5.17;;;8.70;88.60;;;;;;5064384;28;20720;-65
2023/02/08 15:44:18;;;;;;;9.17;5.33;;;8.60;90.30;;;;;;5058460;28;20424;-65
2023/02/08 15:47:27;;;;;;;8.80;5.17;;;8.50;90.50;;;;;;5065037;28;20669;-65
2023/02/08 15:50:33;;;;;;;8.30;5.47;;;8.40;90.50;;;;;;5066350;28;20344;-65
2023/02/08 15:53:44;;;;;;;6.03;4.97;;;8.30;90.00;;;;;;5075768;28;20229;-65
2023/02/08 15:56:54;;;;;;;12.93;5.93;;;8.20;90.20;;;;;;5065621;28;20241;-65
2023/02/08 16:00:00;;;;;;;12.57;5.70;;;8.10;90.80;;;;;;5063163;28;20736;-65
2023/02/08 16:03:17;;;;;;;11.33;5.30;;;8.00;90.90;;;;;;5068302;28;20283;-65
2023/02/08 16:06:25;;;;;;;5.27;4.77;;;7.90;92.00;;;;;;5062789;28;20207;-65
2023/02/08 16:09:33;;;;;;;5.67;4.67;;;7.70;92.20;;;;;;5059666;28;21523;-65
2023/02/08 16:12:38;;;;;;;9.57;4.73;;;7.60;92.70;;;;;;5057044;28;20228;-65
2023/02/08 16:15:47;;;;;;;8.30;4.67;;;7.50;93.10;;;;;;5062995;28;20304;-65
2023/02/08 16:19:00;;;;;;;9.27;4.97;;;7.40;93.70;;;;;;5061259;28;20254;-65
2023/02/08 16:22:24;;;;;;;5.87;5.23;;;7.30;93.60;;;;;;5061533;28;21158;-65